Time;durP1;ratioP1;P1;durP2;ratioP2;P2;SDS_P1;SDS_P2;PMS_P1;PMS_P2;Temp;Humidity;BMP_temperature;BMP_pressure;BME280_temperature;BME280_humidity;BME280_pressure;Samples;Min_cycle;Max_cycle;Signal;HPM_P1;HPM_P2
2021/10/21 00:01:13;;;;;;;8.05;1.33;;;13.40;76.90;;;;;;4989581;28;20055;-85
2021/10/21 00:03:40;;;;;;;9.35;2.13;;;13.30;76.70;;;;;;4987138;28;20138;-84
2021/10/21 00:06:07;;;;;;;11.50;1.55;;;13.30;76.60;;;;;;4984804;28;20046;-83
2021/10/21 00:08:34;;;;;;;10.75;1.85;;;13.30;76.50;;;;;;4985168;28;20043;-85
2021/10/21 00:11:01;;;;;;;13.02;1.85;;;13.30;76.50;;;;;;4985210;28;20046;-83
2021/10/21 00:13:28;;;;;;;7.82;1.90;;;13.30;76.40;;;;;;4988085;28;20049;-83
2021/10/21 00:15:55;;;;;;;12.13;1.85;;;13.30;76.40;;;;;;4987779;28;20502;-83
2021/10/21 00:18:22;;;;;;;14.20;2.42;;;13.20;76.50;;;;;;4987593;28;20058;-84
2021/10/21 00:20:49;;;;;;;10.80;1.70;;;13.20;76.50;;;;;;4988731;28;20039;-82
2021/10/21 00:23:16;;;;;;;10.60;1.92;;;13.20;76.40;;;;;;4988939;28;20050;-83
2021/10/21 00:25:43;;;;;;;11.95;1.80;;;13.20;76.50;;;;;;4989656;28;20573;-86
2021/10/21 00:28:12;;;;;;;16.30;2.05;;;13.20;76.50;;;;;;4992753;28;20092;-86
2021/10/21 00:30:39;;;;;;;14.70;2.13;;;13.20;76.60;;;;;;4979006;28;20093;-84
2021/10/21 00:33:06;;;;;;;10.85;1.50;;;13.20;76.70;;;;;;4987857;28;20046;-85
2021/10/21 00:35:33;;;;;;;11.15;2.63;;;13.20;76.80;;;;;;4988557;28;20108;-84
2021/10/21 00:38:00;;;;;;;15.85;2.45;;;13.20;77.00;;;;;;4988891;28;20042;-85
2021/10/21 00:40:27;;;;;;;7.80;1.73;;;13.10;77.20;;;;;;4993156;28;20061;-85
2021/10/21 00:42:54;;;;;;;6.78;1.50;;;13.10;77.30;;;;;;4978108;28;20113;-84
2021/10/21 00:45:21;;;;;;;14.05;2.00;;;13.10;77.40;;;;;;4988085;28;20050;-83
2021/10/21 00:47:48;;;;;;;12.23;2.13;;;13.10;77.40;;;;;;4988647;28;20093;-85
2021/10/21 00:50:15;;;;;;;13.68;1.95;;;13.00;77.50;;;;;;4988199;28;20046;-84
2021/10/21 00:52:42;;;;;;;19.02;2.72;;;13.00;77.50;;;;;;4988691;28;20082;-83
2021/10/21 00:55:09;;;;;;;10.02;1.73;;;13.00;77.50;;;;;;4991721;28;20121;-85
2021/10/21 00:57:37;;;;;;;14.18;1.85;;;13.00;77.60;;;;;;4989583;28;20042;-83
2021/10/21 01:00:05;;;;;;;15.75;2.08;;;12.90;77.60;;;;;;4988591;28;20591;-84
2021/10/21 01:02:32;;;;;;;12.85;2.42;;;12.90;77.70;;;;;;4988335;28;20101;-83
2021/10/21 01:04:59;;;;;;;11.18;2.10;;;12.90;77.70;;;;;;4987904;28;20062;-84
2021/10/21 01:07:28;;;;;;;12.35;1.63;;;12.90;77.70;;;;;;4991237;28;20129;-85
2021/10/21 01:09:55;;;;;;;8.00;1.50;;;12.90;77.70;;;;;;4990339;28;20422;-83
2021/10/21 01:12:22;;;;;;;4.82;1.08;;;12.90;77.60;;;;;;4987749;28;20048;-86
2021/10/21 01:14:49;;;;;;;7.75;1.42;;;12.90;77.70;;;;;;4988014;28;20047;-84
2021/10/21 01:17:17;;;;;;;9.05;1.42;;;12.90;77.70;;;;;;4988021;28;20099;-84
2021/10/21 01:19:44;;;;;;;8.00;1.38;;;12.90;77.70;;;;;;4988499;28;20047;-86
2021/10/21 01:22:11;;;;;;;6.53;1.30;;;12.90;77.60;;;;;;4991936;28;20664;-85
2021/10/21 01:24:38;;;;;;;11.50;1.67;;;12.90;77.60;;;;;;4978274;28;20113;-85
2021/10/21 01:27:04;;;;;;;12.63;1.50;;;12.90;77.50;;;;;;4986850;28;20050;-85
2021/10/21 01:29:31;;;;;;;8.15;1.33;;;12.90;77.50;;;;;;4986694;28;20676;-84
2021/10/21 01:32:00;;;;;;;7.95;1.00;;;12.90;77.40;;;;;;4987688;28;20046;-85
2021/10/21 01:34:27;;;;;;;7.45;1.40;;;12.90;77.40;;;;;;4988709;28;20785;-84
2021/10/21 01:36:54;;;;;;;5.93;1.30;;;12.90;77.40;;;;;;4990416;28;20117;-84
2021/10/21 01:39:26;;;;;;;7.05;1.38;;;12.90;77.40;;;;;;4974246;28;20109;-85
2021/10/21 01:41:54;;;;;;;11.30;1.50;;;12.90;77.30;;;;;;4998517;28;20046;-84
2021/10/21 01:44:21;;;;;;;6.15;1.13;;;12.90;77.30;;;;;;4987589;28;20046;-83
2021/10/21 01:46:47;;;;;;;7.03;0.80;;;12.80;77.40;;;;;;4987590;28;20499;-84
2021/10/21 01:49:14;;;;;;;5.82;0.90;;;12.90;77.50;;;;;;4975742;28;20047;-86
2021/10/21 01:51:41;;;;;;;4.22;1.00;;;12.90;77.60;;;;;;4989209;28;20446;-85
2021/10/21 01:54:08;;;;;;;3.58;0.70;;;12.80;77.70;;;;;;4987393;28;20584;-84
2021/10/21 01:56:35;;;;;;;3.75;0.70;;;12.80;77.80;;;;;;4987310;28;20077;-83
2021/10/21 01:59:02;;;;;;;3.55;0.70;;;12.80;77.90;;;;;;4987228;28;20463;-83
2021/10/21 02:01:28;;;;;;;4.50;1.20;;;12.80;78.00;;;;;;4990155;28;20081;-84
2021/10/21 02:03:56;;;;;;;10.73;0.95;;;12.80;78.10;;;;;;4989594;28;20105;-83
2021/10/21 02:06:24;;;;;;;2.75;0.60;;;12.80;78.10;;;;;;4988229;28;20066;-84
2021/10/21 02:08:51;;;;;;;3.78;0.77;;;12.70;78.20;;;;;;4987150;28;20053;-84
2021/10/21 02:11:18;;;;;;;4.60;0.63;;;12.70;78.30;;;;;;4987023;28;20046;-83
2021/10/21 02:13:45;;;;;;;6.05;0.70;;;12.70;78.40;;;;;;4985998;28;20097;-83
2021/10/21 02:16:13;;;;;;;3.72;0.75;;;12.70;78.40;;;;;;4990993;28;20585;-84
2021/10/21 02:18:40;;;;;;;2.15;0.60;;;12.70;78.50;;;;;;4988404;28;20108;-84
2021/10/21 02:21:07;;;;;;;7.60;1.05;;;12.70;78.60;;;;;;4991147;28;20050;-84
2021/10/21 02:23:34;;;;;;;7.07;1.10;;;12.60;78.70;;;;;;4986673;28;20077;-83
2021/10/21 02:26:01;;;;;;;9.25;1.13;;;12.60;78.80;;;;;;4986966;28;20105;-85
2021/10/21 02:28:28;;;;;;;4.07;0.82;;;12.60;79.00;;;;;;4987732;28;20050;-85
2021/10/21 02:30:56;;;;;;;4.45;0.80;;;12.70;79.10;;;;;;4989438;28;20051;-83
2021/10/21 02:33:23;;;;;;;3.72;0.90;;;12.60;79.30;;;;;;4987534;28;20450;-84
2021/10/21 02:35:50;;;;;;;11.85;1.15;;;12.60;79.40;;;;;;4986730;28;20111;-84
2021/10/21 02:38:18;;;;;;;5.35;0.85;;;12.60;79.60;;;;;;4986597;28;20120;-84
2021/10/21 02:40:45;;;;;;;5.80;1.00;;;12.60;79.70;;;;;;4986974;28;20074;-84
2021/10/21 02:43:13;;;;;;;6.47;1.15;;;12.60;79.90;;;;;;4990579;28;20050;-84
2021/10/21 02:45:41;;;;;;;7.35;1.02;;;12.60;80.00;;;;;;4987728;28;20042;-82
2021/10/21 02:48:08;;;;;;;6.72;1.10;;;12.50;80.10;;;;;;4986393;28;20046;-83
2021/10/21 02:50:35;;;;;;;4.22;0.80;;;12.50;80.20;;;;;;4986122;28;20503;-83
2021/10/21 02:53:01;;;;;;;6.70;0.88;;;12.50;80.20;;;;;;4984631;28;20090;-83
2021/10/21 02:55:28;;;;;;;7.20;1.00;;;12.50;80.30;;;;;;4990660;28;20046;-83
2021/10/21 02:57:55;;;;;;;7.85;0.70;;;12.50;80.30;;;;;;4975542;28;20062;-84
2021/10/21 03:00:22;;;;;;;2.05;0.40;;;12.50;80.30;;;;;;4985467;28;20062;-83
2021/10/21 03:02:50;;;;;;;9.25;1.00;;;12.40;80.30;;;;;;4986007;28;20108;-84
2021/10/21 03:05:17;;;;;;;3.65;0.75;;;12.40;80.30;;;;;;4985969;28;20053;-83
2021/10/21 03:07:44;;;;;;;2.88;0.40;;;12.40;80.20;;;;;;4984842;28;20059;-85
2021/10/21 03:10:11;;;;;;;3.38;0.63;;;12.40;80.30;;;;;;4990010;28;20046;-85
2021/10/21 03:12:38;;;;;;;5.60;0.70;;;12.30;80.20;;;;;;4987811;28;20050;-85
2021/10/21 03:15:25;;;;;;;3.08;0.73;;;12.30;80.20;;;;;;4984834;28;20058;-83
2021/10/21 03:17:53;;;;;;;8.40;1.00;;;12.30;80.20;;;;;;4985966;28;20058;-84
2021/10/21 03:20:20;;;;;;;5.32;1.00;;;12.20;80.20;;;;;;4985760;28;20470;-83
2021/10/21 03:22:46;;;;;;;6.78;1.10;;;12.20;80.20;;;;;;4986169;28;20105;-83
2021/10/21 03:25:14;;;;;;;5.43;1.08;;;12.10;80.30;;;;;;4987761;28;20412;-85
2021/10/21 03:27:41;;;;;;;6.07;0.85;;;12.10;80.30;;;;;;4987334;28;20101;-84
2021/10/21 03:30:10;;;;;;;6.40;1.00;;;12.10;80.30;;;;;;4985371;28;20062;-84
2021/10/21 03:32:38;;;;;;;5.28;1.13;;;12.00;80.30;;;;;;4983211;28;20418;-85
2021/10/21 03:35:07;;;;;;;6.80;1.00;;;12.00;80.30;;;;;;4980758;28;20108;-84
2021/10/21 03:37:34;;;;;;;5.45;0.95;;;11.90;80.30;;;;;;4987767;28;20503;-84
2021/10/21 03:40:01;;;;;;;7.47;1.38;;;11.90;80.30;;;;;;4988211;28;20478;-84
2021/10/21 03:42:28;;;;;;;7.88;0.82;;;11.90;80.30;;;;;;4987408;28;20105;-84
2021/10/21 03:44:57;;;;;;;3.90;0.80;;;11.90;80.30;;;;;;4985218;28;20096;-85
2021/10/21 03:47:27;;;;;;;5.63;1.02;;;11.80;80.30;;;;;;4982549;28;20487;-84
2021/10/21 03:49:54;;;;;;;6.32;1.00;;;11.80;80.30;;;;;;4985292;28;20050;-83
2021/10/21 03:52:21;;;;;;;9.75;1.10;;;11.80;80.30;;;;;;4988725;28;20782;-84
2021/10/21 03:54:49;;;;;;;7.80;1.27;;;11.70;80.30;;;;;;4987876;28;20056;-83
2021/10/21 03:57:16;;;;;;;4.90;1.05;;;11.70;80.30;;;;;;4986557;28;20457;-83
2021/10/21 03:59:43;;;;;;;7.20;1.23;;;11.70;80.40;;;;;;4985039;28;20089;-83
2021/10/21 04:02:11;;;;;;;10.02;1.55;;;11.60;80.40;;;;;;4985303;28;20183;-85
2021/10/21 04:04:38;;;;;;;8.13;1.48;;;11.60;80.50;;;;;;4986837;28;20686;-85
2021/10/21 04:07:05;;;;;;;9.95;1.55;;;11.60;80.40;;;;;;4988400;28;20062;-83
2021/10/21 04:09:32;;;;;;;8.93;1.50;;;11.60;80.40;;;;;;4987156;28;20050;-84
2021/10/21 04:11:59;;;;;;;10.25;1.60;;;11.50;80.40;;;;;;4983705;28;20050;-84
2021/10/21 04:14:26;;;;;;;8.00;1.67;;;11.50;80.30;;;;;;4984750;28;20526;-84
2021/10/21 04:16:56;;;;;;;11.35;1.63;;;11.50;80.20;;;;;;4988626;28;20054;-85
2021/10/21 04:19:23;;;;;;;15.18;2.13;;;11.40;80.10;;;;;;4988755;28;20042;-84
2021/10/21 04:21:50;;;;;;;11.60;1.83;;;11.40;80.00;;;;;;4987671;28;20053;-84
2021/10/21 04:24:17;;;;;;;15.55;2.03;;;11.40;80.00;;;;;;4985693;28;20104;-84
2021/10/21 04:26:44;;;;;;;9.80;2.00;;;11.40;79.80;;;;;;4983409;28;20053;-83
2021/10/21 04:29:11;;;;;;;12.40;2.22;;;11.30;79.80;;;;;;4984853;28;20054;-83
2021/10/21 04:31:38;;;;;;;12.77;2.05;;;11.30;79.70;;;;;;4986893;28;20062;-83
2021/10/21 04:34:05;;;;;;;11.57;2.00;;;11.30;79.60;;;;;;4988281;28;20124;-84
2021/10/21 04:36:32;;;;;;;11.73;2.28;;;11.20;79.60;;;;;;4987027;28;20117;-85
2021/10/21 04:38:59;;;;;;;10.80;2.17;;;11.20;79.50;;;;;;4989385;28;20042;-84
2021/10/21 04:41:26;;;;;;;10.50;2.15;;;11.20;79.50;;;;;;4984825;28;20458;-86
2021/10/21 04:43:53;;;;;;;8.38;1.60;;;11.20;79.50;;;;;;4984826;28;20050;-85
2021/10/21 04:46:19;;;;;;;10.65;1.92;;;11.20;79.40;;;;;;4988951;28;20109;-84
2021/10/21 04:48:46;;;;;;;10.55;2.10;;;11.20;79.40;;;;;;4986180;28;20046;-84
2021/10/21 04:51:13;;;;;;;14.20;2.25;;;11.20;79.40;;;;;;4984026;28;20050;-85
2021/10/21 04:53:41;;;;;;;12.85;2.15;;;11.10;79.40;;;;;;4985002;28;20101;-85
2021/10/21 04:56:10;;;;;;;14.70;2.58;;;11.10;79.30;;;;;;4984531;28;20106;-84
2021/10/21 04:58:37;;;;;;;11.57;2.13;;;11.10;79.30;;;;;;4986538;28;20051;-84
2021/10/21 05:01:04;;;;;;;17.88;2.25;;;11.10;79.30;;;;;;4987872;28;20050;-85
2021/10/21 05:03:31;;;;;;;12.30;2.63;;;11.10;79.30;;;;;;4986638;28;20640;-84
2021/10/21 05:05:58;;;;;;;13.48;2.47;;;11.00;79.40;;;;;;4986141;28;20073;-84
2021/10/21 05:08:25;;;;;;;16.40;2.55;;;11.10;79.40;;;;;;4988162;28;20042;-85
2021/10/21 05:10:52;;;;;;;13.90;2.35;;;11.00;79.40;;;;;;4987841;28;20133;-84
2021/10/21 05:13:19;;;;;;;14.85;2.75;;;11.00;79.40;;;;;;4992266;28;20482;-85
2021/10/21 05:15:46;;;;;;;13.27;2.53;;;11.00;79.40;;;;;;4990206;28;20507;-84
2021/10/21 05:18:13;;;;;;;14.50;2.15;;;11.00;79.40;;;;;;4988415;28;20054;-84
2021/10/21 05:20:41;;;;;;;14.35;2.20;;;11.00;79.40;;;;;;4987042;28;20060;-84
2021/10/21 05:23:07;;;;;;;11.18;2.28;;;11.00;79.40;;;;;;4987989;28;20051;-85
2021/10/21 05:25:34;;;;;;;11.68;2.00;;;11.00;79.50;;;;;;4989810;28;20489;-84
2021/10/21 05:28:02;;;;;;;12.40;2.28;;;11.00;79.50;;;;;;4991237;28;20066;-84
2021/10/21 05:30:30;;;;;;;11.73;2.38;;;11.00;79.50;;;;;;4987968;28;20050;-84
2021/10/21 05:32:56;;;;;;;16.63;2.80;;;11.00;79.50;;;;;;4987698;28;20038;-84
2021/10/21 05:35:23;;;;;;;16.77;2.65;;;11.00;79.50;;;;;;4991963;28;20506;-85
2021/10/21 05:37:50;;;;;;;13.95;2.60;;;11.00;79.60;;;;;;4984923;28;20053;-84
2021/10/21 05:40:20;;;;;;;14.45;2.42;;;11.10;79.60;;;;;;4991762;28;20070;-84
2021/10/21 05:42:48;;;;;;;18.67;2.38;;;11.10;79.60;;;;;;4990015;28;20057;-84
2021/10/21 05:45:15;;;;;;;12.65;2.17;;;11.10;79.60;;;;;;4986493;28;20097;-85
2021/10/21 05:47:43;;;;;;;9.88;1.77;;;11.10;79.60;;;;;;4987533;28;20046;-86
2021/10/21 05:50:10;;;;;;;14.18;2.00;;;11.10;79.60;;;;;;4988908;28;20110;-85
2021/10/21 05:52:37;;;;;;;12.68;2.03;;;11.10;79.50;;;;;;4975019;28;20051;-85
2021/10/21 05:55:05;;;;;;;19.17;2.92;;;11.10;79.50;;;;;;4990144;28;20046;-85
2021/10/21 05:57:32;;;;;;;13.10;2.33;;;11.10;79.50;;;;;;4978438;28;20050;-84
2021/10/21 05:59:59;;;;;;;11.27;2.20;;;11.10;79.50;;;;;;4985437;28;20046;-87
2021/10/21 06:02:26;;;;;;;13.50;2.30;;;11.20;79.50;;;;;;4987117;28;20050;-85
2021/10/21 06:04:52;;;;;;;16.30;2.47;;;11.20;79.50;;;;;;4987193;28;20606;-86
2021/10/21 06:07:19;;;;;;;11.65;2.50;;;11.20;79.50;;;;;;4989440;28;20514;-85
2021/10/21 06:09:47;;;;;;;12.30;2.28;;;11.20;79.50;;;;;;4986192;28;20088;-87
2021/10/21 06:12:14;;;;;;;11.68;2.58;;;11.20;79.40;;;;;;4980819;28;20066;-86
2021/10/21 06:14:41;;;;;;;12.73;2.22;;;11.20;79.40;;;;;;4982762;28;20043;-86
2021/10/21 06:17:08;;;;;;;12.00;2.20;;;11.20;79.30;;;;;;4984541;28;20046;-86
2021/10/21 06:19:35;;;;;;;21.05;2.65;;;11.20;79.30;;;;;;4975956;28;20399;-86
2021/10/21 06:22:08;;;;;;;13.70;2.00;;;11.20;79.30;;;;;;4991891;28;20054;-86
2021/10/21 06:24:36;;;;;;;16.67;2.88;;;11.20;79.20;;;;;;4978081;28;20050;-86
2021/10/21 06:27:03;;;;;;;13.43;1.70;;;11.20;79.20;;;;;;4987424;28;20045;-85
2021/10/21 06:29:30;;;;;;;14.90;2.40;;;11.20;79.10;;;;;;4980356;28;20047;-85
2021/10/21 06:32:00;;;;;;;15.25;2.75;;;11.20;79.00;;;;;;4978591;28;20050;-85
2021/10/21 06:34:27;;;;;;;9.27;2.13;;;11.20;79.00;;;;;;4978052;28;20043;-85
2021/10/21 06:36:54;;;;;;;16.70;2.83;;;11.20;78.90;;;;;;4975970;28;20058;-85
2021/10/21 06:39:21;;;;;;;14.75;2.70;;;11.20;78.80;;;;;;4978416;28;20058;-86
2021/10/21 06:41:48;;;;;;;14.43;2.47;;;11.20;78.80;;;;;;4978416;28;20090;-84
2021/10/21 06:44:15;;;;;;;15.07;2.33;;;11.20;78.70;;;;;;4977785;28;20046;-84
2021/10/21 06:46:42;;;;;;;14.00;2.85;;;11.20;78.60;;;;;;4977937;28;20097;-84
2021/10/21 06:49:09;;;;;;;13.45;2.47;;;11.20;78.60;;;;;;4974773;28;25372;-84
2021/10/21 06:51:36;;;;;;;20.38;2.83;;;11.20;78.50;;;;;;4977929;28;20050;-85
2021/10/21 06:54:03;;;;;;;12.40;2.35;;;11.20;78.50;;;;;;4977924;28;20499;-85
2021/10/21 06:56:32;;;;;;;12.85;2.50;;;11.20;78.40;;;;;;4978428;28;20047;-85
2021/10/21 06:59:00;;;;;;;16.35;2.80;;;11.20;78.30;;;;;;4977729;28;20049;-84
2021/10/21 07:01:26;;;;;;;10.73;2.20;;;11.30;78.30;;;;;;4975345;28;20047;-84
2021/10/21 07:03:54;;;;;;;11.07;1.85;;;11.30;78.30;;;;;;4991585;28;20499;-84
2021/10/21 07:06:21;;;;;;;13.75;2.47;;;11.30;78.30;;;;;;4979912;28;20058;-84
2021/10/21 07:08:48;;;;;;;14.57;2.65;;;11.30;78.30;;;;;;4977679;28;20042;-86
2021/10/21 07:11:15;;;;;;;18.75;2.83;;;11.30;78.30;;;;;;4979038;28;20106;-84
2021/10/21 07:13:42;;;;;;;12.95;2.25;;;11.30;78.20;;;;;;4976755;28;20057;-85
2021/10/21 07:16:10;;;;;;;12.93;2.47;;;11.30;78.30;;;;;;4974344;28;20062;-85
2021/10/21 07:18:37;;;;;;;14.38;2.38;;;11.30;78.30;;;;;;4978107;28;20054;-85
2021/10/21 07:21:04;;;;;;;13.45;2.35;;;11.30;78.30;;;;;;4987677;28;20431;-84
2021/10/21 07:23:31;;;;;;;11.93;2.13;;;11.30;78.30;;;;;;4983268;28;20109;-84
2021/10/21 07:25:58;;;;;;;18.15;2.80;;;11.30;78.30;;;;;;4977859;28;20096;-85
2021/10/21 07:28:25;;;;;;;18.48;2.88;;;11.30;78.40;;;;;;4973743;28;20051;-85
2021/10/21 07:30:56;;;;;;;12.43;2.53;;;11.30;78.50;;;;;;4976044;28;20097;-84
2021/10/21 07:33:23;;;;;;;15.35;2.70;;;11.30;78.50;;;;;;4979522;28;20047;-85
2021/10/21 07:35:51;;;;;;;9.85;2.38;;;11.30;78.60;;;;;;4978516;28;20825;-84
2021/10/21 07:38:18;;;;;;;21.75;3.03;;;11.30;78.70;;;;;;4979103;28;20419;-84
2021/10/21 07:40:45;;;;;;;11.98;2.22;;;11.30;78.80;;;;;;4977341;28;20054;-85
2021/10/21 07:43:13;;;;;;;16.40;2.65;;;11.30;78.90;;;;;;4973458;28;20540;-86
2021/10/21 07:45:41;;;;;;;13.45;2.30;;;11.30;79.00;;;;;;4976648;28;20109;-85
2021/10/21 07:48:08;;;;;;;15.15;2.60;;;11.30;79.10;;;;;;4979087;28;20106;-87
2021/10/21 07:50:36;;;;;;;14.15;2.60;;;11.30;79.20;;;;;;4976712;28;20103;-86
2021/10/21 07:53:06;;;;;;;14.07;2.50;;;11.40;79.30;;;;;;4977617;28;20050;-86
2021/10/21 07:55:34;;;;;;;12.80;2.45;;;11.40;79.40;;;;;;4975323;28;20500;-86
2021/10/21 07:58:03;;;;;;;19.33;3.60;;;11.40;79.50;;;;;;4973792;28;20574;-85
2021/10/21 08:00:30;;;;;;;15.93;3.33;;;11.40;79.60;;;;;;4977062;28;20502;-85
2021/10/21 08:02:57;;;;;;;22.02;3.00;;;11.40;79.70;;;;;;4977340;28;20102;-85
2021/10/21 08:05:24;;;;;;;20.35;2.72;;;11.40;79.80;;;;;;4978771;28;20186;-88
2021/10/21 08:07:51;;;;;;;12.23;2.50;;;11.40;79.90;;;;;;4977373;28;20058;-85
2021/10/21 08:10:21;;;;;;;16.65;2.70;;;11.40;80.00;;;;;;4973520;28;20038;-86
2021/10/21 08:12:49;;;;;;;15.73;3.30;;;11.40;80.00;;;;;;4976032;28;20101;-86
2021/10/21 08:15:17;;;;;;;14.10;3.03;;;11.40;80.10;;;;;;4977574;28;20494;-85
2021/10/21 08:17:44;;;;;;;13.82;3.08;;;11.40;80.10;;;;;;4978422;28;20113;-84
2021/10/21 08:20:13;;;;;;;16.88;3.40;;;11.40;80.20;;;;;;4976725;28;20082;-83
2021/10/21 08:22:47;;;;;;;17.45;3.42;;;11.40;80.30;;;;;;4975947;28;20487;-85
2021/10/21 08:25:16;;;;;;;18.88;2.88;;;11.40;80.40;;;;;;4972875;28;20057;-83
2021/10/21 08:27:44;;;;;;;16.35;2.40;;;11.40;80.40;;;;;;4976621;28;20050;-84
2021/10/21 08:30:12;;;;;;;13.88;2.53;;;11.40;80.50;;;;;;4977154;28;20051;-83
2021/10/21 08:32:42;;;;;;;16.25;3.05;;;11.40;80.50;;;;;;4977376;28;20046;-87
2021/10/21 08:35:14;;;;;;;13.32;2.45;;;11.40;80.60;;;;;;4976371;28;20126;-85
2021/10/21 08:37:41;;;;;;;15.85;2.70;;;11.40;80.60;;;;;;4975995;28;20057;-85
2021/10/21 08:40:09;;;;;;;15.52;2.70;;;11.40;80.70;;;;;;4977403;28;20047;-85
2021/10/21 08:42:37;;;;;;;17.58;2.75;;;11.40;80.80;;;;;;4980569;28;20047;-85
2021/10/21 08:45:06;;;;;;;15.02;2.63;;;11.40;80.90;;;;;;4980842;28;20051;-84
2021/10/21 08:47:33;;;;;;;14.05;2.40;;;11.40;81.10;;;;;;4980539;28;20047;-85
2021/10/21 08:50:03;;;;;;;12.95;2.35;;;11.40;81.20;;;;;;4981504;28;20043;-85
2021/10/21 08:52:29;;;;;;;14.35;1.85;;;11.40;81.30;;;;;;4979340;28;20050;-85
2021/10/21 08:54:56;;;;;;;10.40;1.90;;;11.40;81.40;;;;;;4978586;28;20506;-86
2021/10/21 08:57:23;;;;;;;13.82;2.15;;;11.40;81.60;;;;;;4979151;28;20515;-86
2021/10/21 08:59:50;;;;;;;12.10;2.13;;;11.40;81.70;;;;;;4980300;28;20396;-86
2021/10/21 09:03:02;;;;;;;12.05;2.70;;;11.50;81.70;;;;;;4980147;28;20051;-86
2021/10/21 09:05:31;;;;;;;7.47;1.65;;;11.50;81.80;;;;;;4981490;28;20565;-86
2021/10/21 09:08:11;;;;;;;14.90;2.40;;;11.50;81.80;;;;;;4980187;28;20076;-85
2021/10/21 09:10:48;;;;;;;12.27;2.30;;;11.60;81.80;;;;;;4979108;28;20086;-85
2021/10/21 09:13:22;;;;;;;11.15;2.63;;;11.50;81.80;;;;;;4975782;28;20122;-85
2021/10/21 09:15:51;;;;;;;14.98;2.20;;;11.60;81.80;;;;;;4991104;28;20050;-85
2021/10/21 09:18:18;;;;;;;14.05;2.60;;;11.50;81.80;;;;;;4980605;28;20215;-83
2021/10/21 09:20:47;;;;;;;14.25;2.13;;;11.60;81.80;;;;;;4979531;28;20447;-85
2021/10/21 09:23:17;;;;;;;17.05;2.72;;;11.60;81.90;;;;;;4980063;28;20043;-84
2021/10/21 09:25:45;;;;;;;11.82;2.97;;;11.60;81.90;;;;;;4979179;28;20046;-86
2021/10/21 09:28:23;;;;;;;14.35;2.90;;;11.60;82.00;;;;;;4975578;28;20046;-85
2021/10/21 09:31:11;;;;;;;15.03;2.80;;;11.70;82.10;;;;;;4990872;28;20054;-85
2021/10/21 09:33:46;;;;;;;13.57;2.10;;;11.70;82.20;;;;;;4979772;28;20353;-84
2021/10/21 09:36:20;;;;;;;19.27;3.45;;;11.80;82.30;;;;;;4982000;28;20057;-85
2021/10/21 09:38:55;;;;;;;18.55;3.00;;;11.90;82.30;;;;;;4979187;28;20046;-84
2021/10/21 09:41:30;;;;;;;11.98;2.30;;;11.90;82.30;;;;;;4979182;28;20422;-85
2021/10/21 09:43:58;;;;;;;17.38;2.90;;;12.00;82.30;;;;;;4979674;28;20093;-85
2021/10/21 09:46:40;;;;;;;15.60;2.88;;;12.10;82.30;;;;;;4975782;28;20046;-86
2021/10/21 09:49:35;;;;;;;17.02;2.92;;;12.20;82.30;;;;;;4976090;28;20057;-85
2021/10/21 09:52:02;;;;;;;;;;;12.40;82.20;;;;;;4991066;28;20105;-85
2021/10/21 09:54:30;;;;;;;13.50;2.90;;;12.50;82.00;;;;;;4979396;28;19922;-85
2021/10/21 09:57:13;;;;;;;10.57;2.50;;;12.50;81.90;;;;;;4980203;28;20057;-86
2021/10/21 09:59:40;;;;;;;12.25;2.17;;;12.70;81.70;;;;;;4979812;28;20047;-84
2021/10/21 10:02:15;;;;;;;12.07;2.45;;;12.70;81.60;;;;;;4979021;28;20461;-86
2021/10/21 10:04:48;;;;;;;10.77;2.10;;;12.80;81.40;;;;;;4978331;28;20050;-86
2021/10/21 10:07:15;;;;;;;17.38;2.42;;;12.90;81.40;;;;;;4974894;28;20059;-87
2021/10/21 10:09:42;;;;;;;11.90;2.78;;;12.90;81.20;;;;;;4979064;28;20423;-86
2021/10/21 10:12:09;;;;;;;10.90;1.90;;;13.00;81.10;;;;;;4978786;28;20055;-86
2021/10/21 10:14:39;;;;;;;11.63;2.15;;;13.00;80.90;;;;;;4978991;28;20093;-84
2021/10/21 10:17:06;;;;;;;18.85;2.65;;;13.10;80.80;;;;;;4978969;28;20054;-82
2021/10/21 10:19:34;;;;;;;16.45;2.03;;;13.10;80.70;;;;;;4976718;28;20047;-85
2021/10/21 10:22:05;;;;;;;11.35;1.98;;;13.00;80.60;;;;;;4976275;28;20114;-84
2021/10/21 10:24:33;;;;;;;12.93;2.42;;;13.00;80.50;;;;;;4978890;28;20058;-84
2021/10/21 10:27:16;;;;;;;11.85;2.20;;;13.10;80.40;;;;;;4978454;28;20050;-84
2021/10/21 10:29:46;;;;;;;8.30;1.63;;;13.00;80.30;;;;;;4979983;28;20514;-85
2021/10/21 10:32:34;;;;;;;14.82;2.20;;;12.90;80.20;;;;;;4980253;28;20558;-85
2021/10/21 10:35:07;;;;;;;12.52;2.22;;;12.90;80.10;;;;;;4978159;28;20042;-84
2021/10/21 10:37:56;;;;;;;13.43;1.98;;;12.90;80.10;;;;;;4978810;28;20050;-84
2021/10/21 10:40:40;;;;;;;11.45;2.38;;;12.90;80.10;;;;;;4974425;28;20051;-84
2021/10/21 10:43:07;;;;;;;15.52;2.65;;;12.80;80.10;;;;;;4975358;28;20105;-84
2021/10/21 10:45:54;;;;;;;11.50;2.20;;;12.80;80.20;;;;;;4988859;28;20499;-86
2021/10/21 10:48:56;;;;;;;12.57;2.42;;;12.70;80.20;;;;;;4977862;28;20471;-84
2021/10/21 10:51:57;;;;;;;11.38;2.63;;;12.60;80.30;;;;;;4951582;29;20051;-85
2021/10/21 10:54:51;;;;;;;12.45;2.45;;;12.60;80.40;;;;;;4952089;28;20051;-84
2021/10/21 10:57:24;;;;;;;8.00;2.13;;;12.60;80.60;;;;;;4951728;29;20664;-84
2021/10/21 10:59:55;;;;;;;9.13;2.15;;;12.50;80.70;;;;;;4950861;28;20130;-84
2021/10/21 11:02:25;;;;;;;14.23;2.80;;;12.50;80.80;;;;;;4934947;29;20112;-84
2021/10/21 11:04:52;;;;;;;9.68;1.95;;;12.40;80.90;;;;;;4950538;28;20083;-86
2021/10/21 11:07:22;;;;;;;11.88;2.10;;;12.40;81.10;;;;;;4951265;28;20055;-85
2021/10/21 11:09:51;;;;;;;8.55;2.10;;;12.40;81.10;;;;;;4951645;29;20087;-87
2021/10/21 11:12:25;;;;;;;10.45;1.75;;;12.30;81.20;;;;;;4951654;28;20488;-85
2021/10/21 11:14:56;;;;;;;8.05;1.63;;;12.30;81.30;;;;;;4950644;29;20056;-85
2021/10/21 11:17:49;;;;;;;11.30;1.90;;;12.20;81.40;;;;;;4950496;29;20074;-84
2021/10/21 11:20:29;;;;;;;8.30;1.52;;;12.20;81.50;;;;;;4948501;28;20054;-84
2021/10/21 11:22:59;;;;;;;9.45;1.73;;;12.20;81.60;;;;;;4950354;28;20151;-85
2021/10/21 11:25:32;;;;;;;7.43;1.70;;;12.10;81.70;;;;;;4952326;28;20185;-85
2021/10/21 11:28:00;;;;;;;10.57;1.67;;;12.10;81.80;;;;;;4955649;28;20047;-84
2021/10/21 11:30:31;;;;;;;12.85;1.95;;;12.10;81.80;;;;;;4958423;28;20051;-84
2021/10/21 11:33:08;;;;;;;9.52;1.80;;;12.10;81.90;;;;;;4967095;28;20519;-85
2021/10/21 11:35:40;;;;;;;6.82;1.83;;;12.00;81.90;;;;;;4963306;28;20504;-84
2021/10/21 11:38:16;;;;;;;7.22;1.80;;;12.00;82.00;;;;;;4958365;28;20523;-83
2021/10/21 11:40:44;;;;;;;9.55;1.65;;;12.00;82.00;;;;;;4957319;28;20047;-83
2021/10/21 11:43:22;;;;;;;7.68;1.33;;;12.00;82.00;;;;;;4966882;28;20043;-83
2021/10/21 11:48:34;;;;;;;8.18;1.60;;;11.90;82.10;;;;;;5234223;23;21869;-86
2021/10/21 11:51:06;;;;;;;10.57;1.83;;;11.90;82.10;;;;;;4988264;28;20101;-81
2021/10/21 11:53:33;;;;;;;9.02;1.73;;;11.90;82.20;;;;;;4987941;28;20042;-81
2021/10/21 11:56:00;;;;;;;8.88;1.60;;;11.90;82.30;;;;;;4982491;28;20050;-81
2021/10/21 11:58:30;;;;;;;8.40;1.80;;;11.90;82.40;;;;;;4975618;28;20527;-81
2021/10/21 12:01:06;;;;;;;7.90;1.63;;;11.90;82.50;;;;;;4978798;28;20072;-80
2021/10/21 12:03:35;;;;;;;13.32;1.58;;;11.90;82.50;;;;;;4976850;28;20142;-81
2021/10/21 12:06:07;;;;;;;18.05;2.00;;;11.90;82.60;;;;;;4977054;28;20046;-81
2021/10/21 12:08:35;;;;;;;11.43;2.33;;;11.90;82.70;;;;;;4976917;28;20050;-79
2021/10/21 12:11:06;;;;;;;14.20;1.95;;;12.00;82.70;;;;;;4970786;28;20046;-80
2021/10/21 12:13:35;;;;;;;10.95;1.55;;;12.00;82.60;;;;;;4976695;28;20047;-81
2021/10/21 12:16:21;;;;;;;10.07;1.58;;;12.10;82.60;;;;;;4980607;28;20051;-80
2021/10/21 12:19:09;;;;;;;8.10;1.70;;;12.10;82.50;;;;;;4982415;28;20047;-80
2021/10/21 12:21:40;;;;;;;15.63;1.80;;;12.10;82.40;;;;;;4980820;28;20051;-81
2021/10/21 12:24:27;;;;;;;11.15;2.08;;;12.10;82.30;;;;;;4980660;28;20138;-80
2021/10/21 12:27:03;;;;;;;12.55;2.35;;;12.10;82.20;;;;;;4980671;28;20430;-79
2021/10/21 12:29:44;;;;;;;10.50;1.92;;;12.10;82.10;;;;;;4980656;28;20046;-80
2021/10/21 12:32:18;;;;;;;11.27;1.90;;;12.10;82.10;;;;;;4977152;28;20054;-80
2021/10/21 12:34:50;;;;;;;14.98;2.00;;;12.10;82.00;;;;;;4978060;28;20047;-80
2021/10/21 12:37:22;;;;;;;7.95;1.77;;;12.10;81.90;;;;;;4980442;28;20109;-79
2021/10/21 12:39:49;;;;;;;7.85;1.70;;;12.10;81.90;;;;;;4980273;28;20046;-80
2021/10/21 12:42:24;;;;;;;9.13;1.73;;;12.20;81.80;;;;;;4980472;28;20061;-80
2021/10/21 12:45:00;;;;;;;9.25;1.52;;;12.20;81.70;;;;;;4980310;28;20100;-80
2021/10/21 12:47:31;;;;;;;6.90;1.73;;;12.20;81.60;;;;;;4979521;28;20475;-79
2021/10/21 12:50:05;;;;;;;7.35;1.92;;;12.20;81.50;;;;;;4975941;28;20502;-79
2021/10/21 12:52:38;;;;;;;6.28;1.45;;;12.20;81.50;;;;;;4994529;28;20108;-79
2021/10/21 12:55:22;;;;;;;7.35;1.98;;;12.20;81.50;;;;;;4979949;28;20055;-79